Time;durP1;ratioP1;P1;durP2;ratioP2;P2;SDS_P1;SDS_P2;PMS_P1;PMS_P2;Temp;Humidity;BMP_temperature;BMP_pressure;BME280_temperature;BME280_humidity;BME280_pressure;Samples;Min_cycle;Max_cycle;Signal;HPM_P1;HPM_P2
2021/09/15 00:02:27;;;;;;;11.40;6.68;;;;;;;;;;6198815;22;20194;-91
2021/09/15 00:05:34;;;;;;;10.93;7.10;;;;;;;;;;6198569;22;20168;-90
2021/09/15 00:08:39;;;;;;;13.45;6.88;;;;;;;;;;6199530;22;20171;-90
2021/09/15 00:11:45;;;;;;;11.68;6.80;;;;;;;;;;6197840;23;20322;-92
2021/09/15 00:14:49;;;;;;;13.65;7.60;;;;;;;;;;6199464;23;20207;-91
2021/09/15 00:17:55;;;;;;;13.85;6.97;;;;;;;;;;6201283;22;20168;-91
2021/09/15 00:21:01;;;;;;;16.83;7.20;;;;;;;;;;6197789;22;20171;-90
2021/09/15 00:24:06;;;;;;;12.50;7.18;;;;;;;;;;6197949;22;20160;-91
2021/09/15 00:27:12;;;;;;;13.55;6.55;;;;;;;;;;6198496;23;20288;-91
2021/09/15 00:30:17;;;;;;;11.43;7.05;;;;;;;;;;6199652;22;20215;-90
2021/09/15 00:33:22;;;;;;;11.88;7.35;;;;;;;;;;6200252;22;20168;-90
2021/09/15 00:36:29;;;;;;;12.23;7.18;;;;;;;;;;6199777;23;20627;-92
2021/09/15 00:39:34;;;;;;;15.00;6.88;;;;;;;;;;6199856;22;20168;-91
2021/09/15 00:42:39;;;;;;;10.20;6.50;;;;;;;;;;6199019;22;20233;-90
2021/09/15 00:45:45;;;;;;;14.15;7.13;;;;;;;;;;6198308;22;20175;-90
2021/09/15 00:48:50;;;;;;;12.95;6.63;;;;;;;;;;6199407;23;20175;-91
2021/09/15 00:51:57;;;;;;;13.52;6.82;;;;;;;;;;6199885;23;20270;-91
2021/09/15 00:55:02;;;;;;;13.52;7.15;;;;;;;;;;6201305;22;20554;-90
2021/09/15 00:58:08;;;;;;;16.10;6.65;;;;;;;;;;6201016;23;20177;-90
2021/09/15 01:01:13;;;;;;;13.32;7.00;;;;;;;;;;6200592;22;20215;-90
2021/09/15 01:04:19;;;;;;;12.20;6.53;;;;;;;;;;6201112;22;20156;-91
2021/09/15 01:07:33;;;;;;;14.50;7.53;;;;;;;;;;6202637;22;20167;-89
2021/09/15 01:10:39;;;;;;;14.23;7.35;;;;;;;;;;6204360;22;20192;-90
2021/09/15 01:14:00;;;;;;;15.38;7.35;;;;;;;;;;6203539;22;20168;-91
2021/09/15 01:17:31;;;;;;;10.30;6.93;;;;;;;;;;6202514;22;20886;-92
2021/09/15 01:20:57;;;;;;;13.35;6.65;;;;;;;;;;6203673;22;20279;-93
2021/09/15 01:24:21;;;;;;;12.98;7.65;;;;;;;;;;6203945;23;20160;-92
2021/09/15 01:27:49;;;;;;;11.50;6.78;;;;;;;;;;6204760;22;20159;-89
2021/09/15 01:30:59;;;;;;;14.40;7.18;;;;;;;;;;6203965;22;20242;-92
2021/09/15 01:34:05;;;;;;;12.40;7.25;;;;;;;;;;6203088;22;20168;-92
2021/09/15 01:37:16;;;;;;;13.43;8.00;;;;;;;;;;6202825;22;20167;-91
2021/09/15 01:40:32;;;;;;;11.07;7.25;;;;;;;;;;6203354;22;20164;-91
2021/09/15 01:43:39;;;;;;;15.15;7.05;;;;;;;;;;6203634;23;20195;-90
2021/09/15 01:46:45;;;;;;;12.05;6.93;;;;;;;;;;6202312;22;20171;-92
2021/09/15 01:49:53;;;;;;;13.07;6.82;;;;;;;;;;6202352;22;20167;-91
2021/09/15 01:53:00;;;;;;;12.85;7.07;;;;;;;;;;6201732;23;20509;-91
2021/09/15 01:56:09;;;;;;;10.52;6.65;;;;;;;;;;6201901;22;20164;-90
2021/09/15 01:59:33;;;;;;;9.20;6.60;;;;;;;;;;6202631;22;20187;-91
2021/09/15 02:03:01;;;;;;;9.45;6.28;;;;;;;;;;6201230;22;20167;-92
2021/09/15 02:06:13;;;;;;;11.38;6.60;;;;;;;;;;6201837;22;20247;-89
2021/09/15 02:09:22;;;;;;;11.98;7.00;;;;;;;;;;6201112;22;20492;-89
2021/09/15 02:12:39;;;;;;;11.70;6.10;;;;;;;;;;6203032;22;20164;-92
2021/09/15 02:15:45;;;;;;;11.68;7.03;;;;;;;;;;6203012;22;20155;-91
2021/09/15 02:18:50;;;;;;;11.27;6.72;;;;;;;;;;6202739;22;20171;-90
2021/09/15 02:22:07;;;;;;;11.98;6.40;;;;;;;;;;6203287;22;20171;-91
2021/09/15 02:25:33;;;;;;;11.68;6.90;;;;;;;;;;6203925;23;20164;-90
2021/09/15 02:28:44;;;;;;;15.55;6.60;;;;;;;;;;6203322;22;20176;-90
2021/09/15 02:32:10;;;;;;;12.65;6.93;;;;;;;;;;6203686;23;20267;-90
2021/09/15 02:35:36;;;;;;;15.23;6.72;;;;;;;;;;6205310;22;20749;-91
2021/09/15 02:38:55;;;;;;;13.55;7.30;;;;;;;;;;6204653;23;20172;-92
2021/09/15 02:42:23;;;;;;;15.02;8.23;;;;;;;;;;6204613;22;20176;-91
2021/09/15 02:45:40;;;;;;;14.10;7.78;;;;;;;;;;6204361;23;20200;-92
2021/09/15 02:48:56;;;;;;;10.15;7.25;;;;;;;;;;6204177;23;20167;-89
2021/09/15 02:52:08;;;;;;;11.15;7.55;;;;;;;;;;6203654;22;20232;-92
2021/09/15 02:55:25;;;;;;;11.18;7.28;;;;;;;;;;6202427;22;20164;-92
2021/09/15 02:58:37;;;;;;;13.20;7.53;;;;;;;;;;6202631;22;20183;-91
2021/09/15 03:01:55;;;;;;;11.48;7.30;;;;;;;;;;6202148;22;20199;-91
2021/09/15 03:05:13;;;;;;;12.02;7.20;;;;;;;;;;6203262;22;20168;-90
2021/09/15 03:08:42;;;;;;;11.32;7.20;;;;;;;;;;6202540;22;20164;-92
2021/09/15 03:11:47;;;;;;;14.18;7.45;;;;;;;;;;6201624;22;20199;-90
2021/09/15 03:14:54;;;;;;;13.23;7.70;;;;;;;;;;6202112;22;20275;-90
2021/09/15 03:18:00;;;;;;;15.35;8.50;;;;;;;;;;6201980;22;20163;-90
2021/09/15 03:21:07;;;;;;;14.30;8.60;;;;;;;;;;6202431;22;20167;-91
2021/09/15 03:24:14;;;;;;;14.23;8.77;;;;;;;;;;6202069;22;20171;-90
2021/09/15 03:27:22;;;;;;;15.68;9.93;;;;;;;;;;6199574;23;20172;-92
2021/09/15 03:30:29;;;;;;;19.65;9.98;;;;;;;;;;6201852;22;20225;-91
2021/09/15 03:33:35;;;;;;;18.83;10.45;;;;;;;;;;6201507;22;20164;-93
2021/09/15 03:36:41;;;;;;;16.25;9.57;;;;;;;;;;6201078;22;20163;-91
2021/09/15 03:39:47;;;;;;;17.55;9.45;;;;;;;;;;6201765;23;20159;-89
2021/09/15 03:42:52;;;;;;;17.55;9.45;;;;;;;;;;6202336;22;20216;-90
2021/09/15 03:45:58;;;;;;;16.85;8.52;;;;;;;;;;6201120;23;20147;-90
2021/09/15 03:49:07;;;;;;;14.95;8.52;;;;;;;;;;6202543;23;20686;-91
2021/09/15 03:52:13;;;;;;;14.35;8.70;;;;;;;;;;6202774;22;20195;-91
2021/09/15 03:55:18;;;;;;;16.45;8.57;;;;;;;;;;6201105;22;20611;-92
2021/09/15 03:58:23;;;;;;;15.20;9.48;;;;;;;;;;6203098;22;20221;-91
2021/09/15 04:01:30;;;;;;;16.73;8.88;;;;;;;;;;6201112;23;20258;-91
2021/09/15 04:04:38;;;;;;;16.23;8.73;;;;;;;;;;6201542;22;20176;-91
2021/09/15 04:07:44;;;;;;;21.83;8.93;;;;;;;;;;6205873;22;20208;-91
2021/09/15 04:10:53;;;;;;;14.30;7.90;;;;;;;;;;6211033;22;20168;-89
2021/09/15 04:13:59;;;;;;;13.43;7.85;;;;;;;;;;6205658;22;20179;-92
2021/09/15 04:17:08;;;;;;;15.63;8.80;;;;;;;;;;6202136;23;20172;-91
2021/09/15 04:20:14;;;;;;;17.20;8.77;;;;;;;;;;6202491;22;20159;-92
2021/09/15 04:23:23;;;;;;;14.55;7.63;;;;;;;;;;6202820;23;20200;-92
2021/09/15 04:33:18;;;;;;;13.68;7.65;;;;;;;;;;6201044;22;20163;-90
2021/09/15 04:36:26;;;;;;;17.05;7.85;;;;;;;;;;6202455;22;20597;-90
2021/09/15 04:39:31;;;;;;;13.32;7.72;;;;;;;;;;6203003;22;20167;-91
2021/09/15 04:42:37;;;;;;;12.07;7.65;;;;;;;;;;6202378;23;20235;-91
2021/09/15 04:45:44;;;;;;;14.88;8.80;;;;;;;;;;6203793;22;20155;-90
2021/09/15 04:48:51;;;;;;;17.95;8.20;;;;;;;;;;6202724;22;20207;-91
2021/09/15 04:51:58;;;;;;;15.18;8.93;;;;;;;;;;6201502;23;20271;-90
2021/09/15 04:55:05;;;;;;;14.43;8.23;;;;;;;;;;6202880;22;20176;-89
2021/09/15 04:58:10;;;;;;;15.00;8.38;;;;;;;;;;6202485;23;20507;-92
2021/09/15 05:01:15;;;;;;;14.98;8.35;;;;;;;;;;6201024;23;20199;-90
2021/09/15 05:04:22;;;;;;;14.90;8.48;;;;;;;;;;6200694;22;20172;-91
2021/09/15 05:07:42;;;;;;;15.05;8.15;;;;;;;;;;6200520;22;20164;-91
2021/09/15 05:10:47;;;;;;;14.40;9.13;;;;;;;;;;6205015;22;20171;-90
2021/09/15 05:13:55;;;;;;;15.07;8.57;;;;;;;;;;6201234;22;20215;-91
2021/09/15 05:17:02;;;;;;;15.18;7.72;;;;;;;;;;6199854;23;20212;-92
2021/09/15 05:20:09;;;;;;;15.20;8.43;;;;;;;;;;6200448;23;20175;-90
2021/09/15 05:23:15;;;;;;;15.90;8.55;;;;;;;;;;6201775;22;20171;-91
2021/09/15 05:26:22;;;;;;;14.38;8.60;;;;;;;;;;6201045;22;20192;-92
2021/09/15 05:32:48;;;;;;;13.30;7.80;;;;;;;;;;6203946;22;20239;-91
2021/09/15 05:35:57;;;;;;;16.45;8.00;;;;;;;;;;6206237;22;20159;-91
2021/09/15 13:41:59;;;;;;;24.15;9.45;;;;;;;;;;6158390;22;20212;-91
2021/09/15 13:45:05;;;;;;;16.33;9.48;;;;;;;;;;6205876;22;20155;-92
2021/09/15 13:48:10;;;;;;;13.95;9.68;;;;;;;;;;6202449;23;20464;-92
2021/09/15 13:51:16;;;;;;;16.65;9.45;;;;;;;;;;6203315;23;20310;-92
2021/09/15 13:54:26;;;;;;;15.88;10.23;;;;;;;;;;6205916;22;20159;-92
2021/09/15 13:57:47;;;;;;;19.33;9.70;;;;;;;;;;6206490;22;20215;-93
2021/09/15 14:00:54;;;;;;;17.05;10.30;;;;;;;;;;6205570;22;20239;-91
2021/09/15 14:04:01;;;;;;;18.08;10.95;;;;;;;;;;6206154;22;20160;-92
2021/09/15 14:07:08;;;;;;;13.35;9.80;;;;;;;;;;6203615;23;20239;-91
2021/09/15 14:10:14;;;;;;;14.63;10.00;;;;;;;;;;6204668;22;20209;-93
2021/09/15 14:13:25;;;;;;;18.17;10.77;;;;;;;;;;6204303;22;20650;-93
2021/09/15 14:16:45;;;;;;;17.95;10.88;;;;;;;;;;6202729;23;20223;-91
2021/09/15 14:19:52;;;;;;;19.73;13.63;;;;;;;;;;6203102;22;20224;-93
2021/09/15 14:22:58;;;;;;;15.25;10.23;;;;;;;;;;6200492;23;20179;-92
2021/09/15 14:26:03;;;;;;;21.45;10.48;;;;;;;;;;6201312;22;20156;-92
2021/09/15 14:29:09;;;;;;;16.00;9.75;;;;;;;;;;6201996;22;20259;-92
2021/09/15 14:32:15;;;;;;;12.75;9.20;;;;;;;;;;6201794;22;20244;-92
2021/09/15 14:35:23;;;;;;;13.82;9.48;;;;;;;;;;6202323;22;20192;-92
2021/09/15 14:38:29;;;;;;;17.73;9.52;;;;;;;;;;6203468;22;20244;-92
2021/09/15 14:41:36;;;;;;;16.13;9.82;;;;;;;;;;6201152;22;20191;-93
2021/09/15 14:44:42;;;;;;;15.68;9.57;;;;;;;;;;6202369;22;20180;-92
2021/09/15 14:47:48;;;;;;;17.38;9.38;;;;;;;;;;6201911;22;20275;-92
2021/09/15 14:50:56;;;;;;;18.90;9.40;;;;;;;;;;6203206;23;20156;-92
2021/09/15 14:54:01;;;;;;;16.75;9.68;;;;;;;;;;6199942;22;20211;-91
2021/09/15 14:57:08;;;;;;;18.17;9.57;;;;;;;;;;6200646;22;20188;-93
2021/09/15 15:00:16;;;;;;;16.35;9.25;;;;;;;;;;6203586;22;20333;-91
2021/09/15 15:03:23;;;;;;;20.52;10.10;;;;;;;;;;6204887;22;20164;-93
2021/09/15 15:06:31;;;;;;;14.70;9.68;;;;;;;;;;6203076;23;20168;-91
2021/09/15 15:09:40;;;;;;;16.38;9.43;;;;;;;;;;6206891;23;20168;-93
2021/09/15 15:12:46;;;;;;;17.75;10.00;;;;;;;;;;6206829;22;20195;-92
2021/09/15 15:15:52;;;;;;;18.15;9.20;;;;;;;;;;6204205;22;20168;-92
2021/09/15 15:18:57;;;;;;;17.75;9.73;;;;;;;;;;6205606;22;20172;-92
2021/09/15 15:22:06;;;;;;;19.58;10.70;;;;;;;;;;6205908;22;20172;-91
2021/09/15 15:25:12;;;;;;;25.60;11.18;;;;;;;;;;6206078;22;20220;-93
2021/09/15 15:28:20;;;;;;;16.48;10.05;;;;;;;;;;6205728;22;20156;-93
2021/09/15 22:00:39;;;;;;;28.08;17.95;;;;;;;;;;6132340;23;20484;-93
2021/09/15 22:08:05;;;;;;;26.98;17.65;;;;;;;;;;6198410;23;20199;-94
2021/09/15 22:11:10;;;;;;;27.92;17.90;;;;;;;;;;6197279;23;20498;-92
2021/09/15 22:14:15;;;;;;;27.42;18.55;;;;;;;;;;6197795;22;20218;-93
2021/09/15 22:17:21;;;;;;;31.42;18.45;;;;;;;;;;6196575;22;20184;-93
2021/09/15 22:20:27;;;;;;;33.60;19.17;;;;;;;;;;6197085;22;20156;-93
2021/09/15 22:23:32;;;;;;;31.75;19.50;;;;;;;;;;6196251;23;20163;-92
2021/09/15 22:26:38;;;;;;;28.70;18.85;;;;;;;;;;6198310;22;20242;-92
2021/09/15 22:29:43;;;;;;;30.88;19.35;;;;;;;;;;6199091;23;20172;-93
2021/09/15 22:32:51;;;;;;;30.30;18.60;;;;;;;;;;6200941;23;20188;-93
2021/09/15 22:35:57;;;;;;;26.77;18.50;;;;;;;;;;6199504;23;20175;-94
2021/09/15 22:39:02;;;;;;;28.08;17.58;;;;;;;;;;6200017;22;20160;-93
2021/09/15 22:42:07;;;;;;;27.50;17.73;;;;;;;;;;6201433;22;20168;-93
2021/09/15 22:45:16;;;;;;;28.55;18.30;;;;;;;;;;6201313;22;20245;-93
2021/09/15 22:48:23;;;;;;;29.73;20.23;;;;;;;;;;6202355;22;20171;-93
2021/09/15 22:51:29;;;;;;;33.22;20.48;;;;;;;;;;6203738;23;20167;-93
2021/09/15 22:54:34;;;;;;;35.97;20.63;;;;;;;;;;6207011;22;20199;-93
2021/09/15 22:57:42;;;;;;;30.50;19.67;;;;;;;;;;6203249;22;20167;-92
2021/09/15 23:00:47;;;;;;;34.50;19.65;;;;;;;;;;6203043;23;20291;-93
2021/09/15 23:03:58;;;;;;;28.88;19.27;;;;;;;;;;6198635;22;20351;-92
2021/09/15 23:07:05;;;;;;;37.10;19.73;;;;;;;;;;6203304;22;20241;-92
2021/09/15 23:10:11;;;;;;;33.75;21.15;;;;;;;;;;6200844;23;20512;-92
2021/09/15 23:13:16;;;;;;;30.40;19.25;;;;;;;;;;6200012;22;20180;-93
2021/09/15 23:16:21;;;;;;;32.92;19.80;;;;;;;;;;6201138;23;20200;-91
2021/09/15 23:19:28;;;;;;;31.67;19.67;;;;;;;;;;6201319;23;20171;-92
2021/09/15 23:22:33;;;;;;;31.33;19.98;;;;;;;;;;6201022;23;20164;-93
2021/09/15 23:25:38;;;;;;;37.28;21.23;;;;;;;;;;6201511;22;20179;-92
2021/09/15 23:28:43;;;;;;;40.05;24.10;;;;;;;;;;6198858;22;20164;-94
2021/09/15 23:31:49;;;;;;;32.30;22.33;;;;;;;;;;6200616;22;20175;-93
2021/09/15 23:34:56;;;;;;;38.30;22.13;;;;;;;;;;6199738;23;20171;-92
2021/09/15 23:38:01;;;;;;;36.20;22.92;;;;;;;;;;6196376;22;20167;-92
2021/09/15 23:41:06;;;;;;;37.42;21.48;;;;;;;;;;6198220;22;20160;-92
2021/09/15 23:44:11;;;;;;;31.80;21.40;;;;;;;;;;6197249;22;20611;-91
2021/09/15 23:47:16;;;;;;;35.90;21.48;;;;;;;;;;6196987;23;20183;-92
2021/09/15 23:50:23;;;;;;;36.58;21.60;;;;;;;;;;6197697;22;20219;-91
2021/09/15 23:53:28;;;;;;;36.15;20.73;;;;;;;;;;6197026;22;20191;-92
2021/09/15 23:56:33;;;;;;;36.10;20.13;;;;;;;;;;6197816;23;20152;-92
2021/09/15 23:59:38;;;;;;;35.63;20.88;;;;;;;;;;6196293;23;20191;-93
